Saint Petersburg, FL (33706)

6:33 PM EDT on August 30, 2016 (GMT -0400)
Lido | | Change Station

Elev 30 ft 27.72 °N, 82.73 °W | Updated 1 minute ago

Overcast
Overcast
82.5 °F
Feels Like 90 °F
N
1.0
Wind Variable Wind from SSW
Gusts 13.0 mph

Today
High -- | Low -- °F
--% Chance of Precip.
Yesterday
High -- | Low -- °F
Precip. -- in
Pressure 29.85 in
Visibility 2.0 miles
Clouds Scattered Clouds 1800 ft
Mostly Cloudy 2400 ft
Overcast 5000 ft
Heat Index 90 °F
Dew Point 76 °F
Humidity 81%
Rainfall 0.00 in
Snow Depth Not available.
7:09 AM 7:53 PM
Waning Crescent, 2% visible
SPECI KSPG 302227Z 23006KT 2SM -RA BR SCT018 BKN024 OVC050 26/24 A2985 RMK AO2 WSHFT 2158 VIS 3/4V5 RAB05 P0026 T02610244
Pressure 29.85 in
Visibility 2.0 miles
Clouds Scattered Clouds 1800 ft
Mostly Cloudy 2400 ft
Overcast 5000 ft
Heat Index 90 °F
Dew Point 76 °F
Humidity 81%
Rainfall 0.00 in
Snow Depth Not available.
7:09 AM 7:53 PM
Waning Crescent, 2% visible
SPECI KSPG 302227Z 23006KT 2SM -RA BR SCT018 BKN024 OVC050 26/24 A2985 RMK AO2 WSHFT 2158 VIS 3/4V5 RAB05 P0026 T02610244

10-Day Weather Forecast

Almanac

Astronomy

Aug. 30, 2016 Rise Set
Actual Time
Civil Twilight
Nautical Twilight
Astronomical Twilight
Moon
Length of Visible Light
Length of Day
Tomorrow will be .
, % of the Moon is Illuminated

Today's Extremes

State Highs State Lows

Community

WunderPhotos

Upload Photos

1,935,914 photos uploaded!

WunderBlog® & News

Nearby

Air Quality

  Air Quality AQ Index Pollutant
Not available.

Snow Depth

Station Depth Elevation

Earthquake Activity

City Distance Mag. Time & Date
Minimum magnitude displayed is 2.5.

Coastal Water Temperatures

Place Temperature

Stations

Nearby Weather Stations

Station Location Temp. Windchill Dew Point Humidity Wind Precip. Elev Updated Type
                   

Watches & Warnings

There are currently no watches in effect.